Time;durP1;ratioP1;P1;durP2;ratioP2;P2;SDS_P1;SDS_P2;PMS_P1;PMS_P2;Temp;Humidity;BMP_temperature;BMP_pressure;BME280_temperature;BME280_humidity;BME280_pressure;Samples;Min_cycle;Max_cycle;Signal;HPM_P1;HPM_P2
2024/05/05 00:02:05;;;;;;;;;;;21.20;50.70;;;;;;5407316;26;1661;-89
2024/05/05 00:04:30;;;;;;;;;;;21.20;50.70;;;;;;5421952;26;981;-89
2024/05/05 00:06:56;;;;;;;;;;;21.20;50.70;;;;;;5455457;26;1534;-89
2024/05/05 00:09:21;;;;;;;;;;;21.10;50.70;;;;;;5457560;26;1825;-89
2024/05/05 00:11:46;;;;;;;;;;;21.20;50.60;;;;;;5425857;26;1166;-89
2024/05/05 00:14:12;;;;;;;;;;;21.20;50.70;;;;;;5457647;26;1037;-89
2024/05/05 00:16:37;;;;;;;;;;;21.20;50.70;;;;;;5457713;26;985;-89
2024/05/05 00:19:02;;;;;;;;;;;21.10;50.60;;;;;;5425640;26;1221;-89
2024/05/05 00:21:28;;;;;;;;;;;21.20;50.70;;;;;;5459166;26;1458;-89
2024/05/05 00:23:53;;;;;;;;;;;21.20;50.50;;;;;;5425953;26;1178;-89
2024/05/05 00:26:19;;;;;;;;;;;21.10;50.50;;;;;;5457197;26;994;-89
2024/05/05 00:28:44;;;;;;;;;;;21.20;50.60;;;;;;5425876;26;1836;-89
2024/05/05 00:31:10;;;;;;;;;;;21.10;50.40;;;;;;5466012;26;1526;-89
2024/05/05 00:33:35;;;;;;;;;;;21.10;50.40;;;;;;5461783;26;1220;-89
2024/05/05 00:36:00;;;;;;;;;;;21.10;50.40;;;;;;5460752;26;1189;-89
2024/05/05 00:38:26;;;;;;;;;;;21.10;50.50;;;;;;5461710;26;1320;-89
2024/05/05 00:40:51;;;;;;;;;;;21.10;50.50;;;;;;5493783;26;1072;-89
2024/05/05 00:43:17;;;;;;;;;;;21.10;50.40;;;;;;5490839;26;1412;-89
2024/05/05 00:45:42;;;;;;;;;;;21.10;50.50;;;;;;5461683;26;1317;-89
2024/05/05 00:48:07;;;;;;;;;;;21.10;50.30;;;;;;5494125;26;1832;-89
2024/05/05 00:50:33;;;;;;;;;;;21.10;50.40;;;;;;5493953;26;859;-89
2024/05/05 00:52:58;;;;;;;;;;;21.10;50.70;;;;;;5490887;26;1529;-89
2024/05/05 00:55:23;;;;;;;;;;;21.10;50.50;;;;;;5493373;26;889;-89
2024/05/05 00:57:49;;;;;;;;;;;21.10;50.40;;;;;;5493490;26;1037;-89
2024/05/05 01:00:14;;;;;;;;;;;21.10;50.40;;;;;;5493277;26;1037;-89
2024/05/05 01:02:39;;;;;;;;;;;21.10;50.30;;;;;;5492632;26;1373;-89
2024/05/05 01:05:05;;;;;;;;;;;21.10;50.40;;;;;;5490900;26;1409;-89
2024/05/05 01:07:30;;;;;;;;;;;21.10;50.50;;;;;;5493345;26;1851;-89
2024/05/05 01:09:56;;;;;;;;;;;21.10;50.40;;;;;;5493550;26;981;-89
2024/05/05 01:12:21;;;;;;;;;;;21.10;50.50;;;;;;5461176;26;1323;-89
2024/05/05 01:14:46;;;;;;;;;;;21.10;50.30;;;;;;5490193;26;1624;-89
2024/05/05 01:17:12;;;;;;;;;;;21.10;50.40;;;;;;5493858;26;997;-89
2024/05/05 01:19:37;;;;;;;;;;;21.10;50.40;;;;;;5493034;26;1158;-89
2024/05/05 01:22:02;;;;;;;;;;;21.10;50.50;;;;;;5493300;26;941;-89
2024/05/05 01:24:28;;;;;;;;;;;21.10;50.40;;;;;;5489336;26;1460;-89
2024/05/05 01:26:53;;;;;;;;;;;21.10;50.50;;;;;;5487981;26;1605;-89
2024/05/05 01:29:18;;;;;;;;;;;21.10;50.40;;;;;;5461046;26;1860;-89
2024/05/05 01:31:44;;;;;;;;;;;21.10;50.40;;;;;;5492811;26;1045;-89
2024/05/05 01:34:09;;;;;;;;;;;21.10;50.40;;;;;;5492823;26;834;-89
2024/05/05 01:36:34;;;;;;;;;;;21.10;50.40;;;;;;5468448;26;1695;-89
2024/05/05 01:39:00;;;;;;;;;;;21.10;50.40;;;;;;5456361;26;1215;-89
2024/05/05 01:41:25;;;;;;;;;;;21.10;50.50;;;;;;5456376;26;870;-89
2024/05/05 01:43:50;;;;;;;;;;;21.10;50.40;;;;;;5424948;26;1300;-89
2024/05/05 01:46:16;;;;;;;;;;;21.10;50.50;;;;;;5427893;26;1427;-88
2024/05/05 01:48:41;;;;;;;;;;;21.10;50.40;;;;;;5489326;26;1873;-89
2024/05/05 01:51:07;;;;;;;;;;;21.10;50.50;;;;;;5492607;26;1028;-89
2024/05/05 01:53:32;;;;;;;;;;;21.10;50.50;;;;;;5492386;26;1049;-88
2024/05/05 01:55:57;;;;;;;;;;;21.10;50.50;;;;;;5492475;26;1072;-89
2024/05/05 01:58:23;;;;;;;;;;;21.10;50.50;;;;;;5489225;26;1284;-89
2024/05/05 02:00:48;;;;;;;;;;;21.10;50.50;;;;;;5492441;26;939;-89
2024/05/05 02:03:13;;;;;;;;;;;21.10;50.50;;;;;;5460479;26;1262;-89
2024/05/05 02:05:39;;;;;;;;;;;21.10;50.60;;;;;;5452800;26;1459;-89
2024/05/05 02:08:04;;;;;;;;;;;21.10;50.50;;;;;;5454427;26;1874;-89
2024/05/05 02:10:29;;;;;;;;;;;21.10;50.50;;;;;;5455490;26;915;-89
2024/05/05 02:12:55;;;;;;;;;;;21.10;50.60;;;;;;5399381;26;1485;-89
2024/05/05 02:15:20;;;;;;;;;;;21.10;50.60;;;;;;5419790;26;944;-89
2024/05/05 02:17:45;;;;;;;;;;;21.10;50.60;;;;;;5388484;26;1195;-89
2024/05/05 02:20:11;;;;;;;;;;;21.10;50.60;;;;;;5418968;26;1432;-89
2024/05/05 02:22:36;;;;;;;;;;;21.10;50.60;;;;;;5455690;26;1066;-89
2024/05/05 02:25:01;;;;;;;;;;;21.10;51.20;;;;;;5455519;26;1033;-89
2024/05/05 02:27:27;;;;;;;;;;;21.10;50.60;;;;;;5455079;26;1871;-89
2024/05/05 02:29:54;;;;;;;;;;;21.10;50.60;;;;;;5406645;26;1577;-89
2024/05/05 02:32:19;;;;;;;;;;;21.00;50.60;;;;;;5388517;26;1294;-89
2024/05/05 02:34:44;;;;;;;;;;;21.10;50.70;;;;;;5388393;26;1236;-89
2024/05/05 02:37:10;;;;;;;;;;;21.10;50.70;;;;;;5433549;26;1695;-89
2024/05/05 02:39:35;;;;;;;;;;;21.10;50.70;;;;;;5456421;26;1454;-89
2024/05/05 02:42:01;;;;;;;;;;;21.00;50.60;;;;;;5455403;26;954;-89
2024/05/05 02:44:26;;;;;;;;;;;21.10;50.70;;;;;;5423871;26;1358;-89
2024/05/05 02:46:51;;;;;;;;;;;21.10;50.70;;;;;;5423635;26;1199;-89
2024/05/05 02:49:17;;;;;;;;;;;21.10;50.70;;;;;;5454786;26;1871;-89
2024/05/05 02:51:42;;;;;;;;;;;21.10;50.70;;;;;;5456068;26;1338;-89
2024/05/05 02:54:07;;;;;;;;;;;21.00;50.60;;;;;;5484233;26;1446;-89
2024/05/05 02:56:33;;;;;;;;;;;21.10;50.70;;;;;;5491650;26;1048;-89
2024/05/05 02:58:58;;;;;;;;;;;21.10;50.70;;;;;;5473731;26;1472;-89
2024/05/05 03:01:23;;;;;;;;;;;21.10;50.70;;;;;;5463276;26;1611;-89
2024/05/05 03:03:49;;;;;;;;;;;21.10;50.80;;;;;;5463873;26;1293;-90
2024/05/05 03:06:14;;;;;;;;;;;21.10;50.80;;;;;;5463634;26;1172;-90
2024/05/05 03:08:39;;;;;;;;;;;21.10;50.80;;;;;;5495557;26;2147;-89
2024/05/05 03:11:05;;;;;;;;;;;21.10;50.80;;;;;;5462757;26;1628;-89
2024/05/05 03:13:30;;;;;;;;;;;21.10;50.90;;;;;;5398791;26;1384;-89
2024/05/05 03:15:56;;;;;;;;;;;21.10;50.80;;;;;;5479299;26;1595;-89
2024/05/05 03:18:21;;;;;;;;;;;21.00;50.70;;;;;;5463349;26;1181;-89
2024/05/05 03:20:47;;;;;;;;;;;21.10;50.80;;;;;;5470680;26;1473;-90
2024/05/05 03:23:12;;;;;;;;;;;21.10;50.80;;;;;;5459052;26;847;-89
2024/05/05 03:25:37;;;;;;;;;;;21.00;50.80;;;;;;5470716;26;1373;-89
2024/05/05 03:28:03;;;;;;;;;;;21.00;50.70;;;;;;5495561;26;1870;-89
2024/05/05 03:30:28;;;;;;;;;;;21.10;50.80;;;;;;5485624;26;1682;-89
2024/05/05 03:32:53;;;;;;;;;;;21.10;50.90;;;;;;5458769;26;1571;-90
2024/05/05 03:35:19;;;;;;;;;;;21.00;50.80;;;;;;5458293;26;1612;-89
2024/05/05 03:37:44;;;;;;;;;;;21.00;50.80;;;;;;5423690;26;1554;-89
2024/05/05 03:40:09;;;;;;;;;;;21.00;50.80;;;;;;5422698;26;883;-89
2024/05/05 03:42:35;;;;;;;;;;;21.10;50.90;;;;;;5420147;26;1692;-90
2024/05/05 03:45:00;;;;;;;;;;;21.00;50.80;;;;;;5458321;26;1058;-89
2024/05/05 03:47:25;;;;;;;;;;;21.10;51.00;;;;;;5474756;26;1864;-89
2024/05/05 03:49:51;;;;;;;;;;;21.00;50.90;;;;;;5494418;26;1053;-88
2024/05/05 03:52:16;;;;;;;;;;;21.10;51.00;;;;;;5480732;26;1476;-89
2024/05/05 03:54:42;;;;;;;;;;;21.10;51.00;;;;;;5458239;26;1782;-89
2024/05/05 03:57:07;;;;;;;;;;;21.00;50.90;;;;;;5458989;26;1510;-89
2024/05/05 03:59:32;;;;;;;;;;;21.10;51.00;;;;;;5457912;26;909;-88
2024/05/05 04:01:58;;;;;;;;;;;20.90;50.90;;;;;;5426079;26;1233;-89
2024/05/05 04:04:23;;;;;;;;;;;21.00;51.00;;;;;;5457724;26;1466;-89
2024/05/05 04:06:48;;;;;;;;;;;21.00;51.00;;;;;;5426390;26;1352;-89
2024/05/05 04:09:14;;;;;;;;;;;21.00;51.00;;;;;;5478546;26;1829;-89
2024/05/05 04:11:40;;;;;;;;;;;21.00;51.00;;;;;;5493332;26;1514;-89
2024/05/05 04:14:06;;;;;;;;;;;21.10;51.20;;;;;;5442901;26;1458;-88
2024/05/05 04:16:31;;;;;;;;;;;21.00;51.10;;;;;;5457502;26;1660;-88
2024/05/05 04:18:56;;;;;;;;;;;21.00;51.20;;;;;;5447787;26;1401;-88
2024/05/05 04:21:22;;;;;;;;;;;21.00;51.10;;;;;;5422044;26;938;-89
2024/05/05 04:23:47;;;;;;;;;;;21.00;51.10;;;;;;5390658;26;1287;-89
2024/05/05 04:26:12;;;;;;;;;;;21.00;51.20;;;;;;5441776;26;1714;-88
2024/05/05 04:28:38;;;;;;;;;;;21.00;51.20;;;;;;5457517;26;1825;-88
2024/05/05 04:31:03;;;;;;;;;;;21.00;51.20;;;;;;5429437;26;1537;-89
2024/05/05 04:33:28;;;;;;;;;;;21.00;51.20;;;;;;5390599;26;1332;-89
2024/05/05 04:35:54;;;;;;;;;;;21.00;51.20;;;;;;5445490;26;1513;-89
2024/05/05 04:38:19;;;;;;;;;;;21.00;51.30;;;;;;5457736;26;933;-89
2024/05/05 04:40:44;;;;;;;;;;;21.00;51.30;;;;;;5445138;26;1408;-89
2024/05/05 04:43:10;;;;;;;;;;;21.00;51.30;;;;;;5421316;26;1089;-89
2024/05/05 04:45:36;;;;;;;;;;;21.00;51.30;;;;;;5428719;26;1536;-88
2024/05/05 04:48:01;;;;;;;;;;;21.00;51.30;;;;;;5425721;26;1825;-89
2024/05/05 04:50:26;;;;;;;;;;;21.00;51.30;;;;;;5457074;26;1083;-89
2024/05/05 04:52:52;;;;;;;;;;;21.00;51.40;;;;;;5486311;26;1599;-89
2024/05/05 04:55:17;;;;;;;;;;;21.00;51.30;;;;;;5493625;26;1096;-89
2024/05/05 04:57:43;;;;;;;;;;;21.00;51.40;;;;;;5435058;26;1636;-89
2024/05/05 05:00:08;;;;;;;;;;;21.00;51.40;;;;;;5429495;26;1627;-88
2024/05/05 05:02:33;;;;;;;;;;;21.00;51.30;;;;;;5390228;26;1250;-89
2024/05/05 05:04:59;;;;;;;;;;;21.00;51.40;;;;;;5421535;26;930;-89
2024/05/05 05:07:24;;;;;;;;;;;21.00;51.40;;;;;;5434781;26;1876;-89
2024/05/05 05:09:50;;;;;;;;;;;21.00;51.40;;;;;;5458258;26;1567;-89
2024/05/05 05:12:15;;;;;;;;;;;21.00;51.40;;;;;;5457826;26;922;-90
2024/05/05 05:14:41;;;;;;;;;;;21.00;51.40;;;;;;5425639;26;1593;-89
2024/05/05 05:17:06;;;;;;;;;;;21.00;51.40;;;;;;5457341;26;1632;-89
2024/05/05 05:19:31;;;;;;;;;;;21.00;51.50;;;;;;5456517;26;1545;-89
2024/05/05 05:21:57;;;;;;;;;;;21.00;51.50;;;;;;5421100;26;1481;-89
2024/05/05 05:24:22;;;;;;;;;;;21.00;51.40;;;;;;5421629;26;1034;-89
2024/05/05 05:26:47;;;;;;;;;;;21.10;51.60;;;;;;5422793;26;1042;-89
2024/05/05 05:29:13;;;;;;;;;;;21.00;51.50;;;;;;5441837;26;1868;-89
2024/05/05 05:31:38;;;;;;;;;;;21.00;51.50;;;;;;5477778;26;1642;-89
2024/05/05 05:34:03;;;;;;;;;;;21.00;52.20;;;;;;5494063;26;946;-90
2024/05/05 05:36:29;;;;;;;;;;;21.00;51.60;;;;;;5494118;26;1097;-89
2024/05/05 05:38:54;;;;;;;;;;;21.00;51.50;;;;;;5461071;26;1204;-89
2024/05/05 05:41:19;;;;;;;;;;;21.00;51.60;;;;;;5451838;26;1540;-88
2024/05/05 05:43:45;;;;;;;;;;;21.00;51.50;;;;;;5389803;26;1305;-89
2024/05/05 05:46:10;;;;;;;;;;;21.00;51.60;;;;;;5421040;26;993;-89
2024/05/05 05:48:36;;;;;;;;;;;21.00;51.60;;;;;;5421198;26;1821;-89
2024/05/05 05:51:01;;;;;;;;;;;21.00;51.60;;;;;;5411736;26;1449;-89
2024/05/05 05:53:26;;;;;;;;;;;21.00;51.60;;;;;;5478682;26;1432;-89
2024/05/05 05:55:52;;;;;;;;;;;21.10;51.70;;;;;;5493741;26;950;-90
2024/05/05 05:58:17;;;;;;;;;;;21.00;51.60;;;;;;5461889;26;1318;-90
2024/05/05 06:00:43;;;;;;;;;;;21.10;51.70;;;;;;5457524;26;1513;-90
2024/05/05 06:03:08;;;;;;;;;;;21.00;51.60;;;;;;5427456;26;1292;-90
2024/05/05 06:05:33;;;;;;;;;;;21.00;51.60;;;;;;5458057;26;1081;-90
2024/05/05 06:07:59;;;;;;;;;;;21.00;51.60;;;;;;5426156;26;1857;-89
2024/05/05 06:10:24;;;;;;;;;;;21.10;51.70;;;;;;5472012;26;1104;-89
2024/05/05 06:12:49;;;;;;;;;;;21.10;51.70;;;;;;5478598;26;1525;-89
2024/05/05 06:15:15;;;;;;;;;;;21.10;51.70;;;;;;5418258;26;1569;-89
2024/05/05 06:17:40;;;;;;;;;;;21.10;51.70;;;;;;5479859;26;1267;-89
2024/05/05 06:20:05;;;;;;;;;;;21.00;51.60;;;;;;5464036;26;1329;-89
2024/05/05 06:22:31;;;;;;;;;;;21.10;51.70;;;;;;5478646;26;1745;-91
2024/05/05 06:24:58;;;;;;;;;;;21.10;51.90;;;;;;5448367;26;1668;-90
2024/05/05 06:27:23;;;;;;;;;;;21.10;51.80;;;;;;5478686;26;1855;-89
2024/05/05 06:29:49;;;;;;;;;;;21.10;51.80;;;;;;5475728;26;1501;-89
2024/05/05 06:32:14;;;;;;;;;;;21.10;51.80;;;;;;5470097;26;1852;-89
2024/05/05 06:34:40;;;;;;;;;;;21.10;51.80;;;;;;5481820;26;842;-89
2024/05/05 06:37:05;;;;;;;;;;;21.10;51.80;;;;;;5482127;26;903;-89
2024/05/05 06:39:30;;;;;;;;;;;21.10;51.80;;;;;;5480071;26;1052;-89
2024/05/05 06:41:56;;;;;;;;;;;21.10;51.80;;;;;;5501657;26;1500;-89
2024/05/05 06:44:21;;;;;;;;;;;21.10;51.80;;;;;;5509905;26;1114;-90
2024/05/05 06:46:47;;;;;;;;;;;21.00;53.10;;;;;;5505365;26;1033;-90
2024/05/05 06:49:12;;;;;;;;;;;21.10;53.50;;;;;;5464287;26;1864;-90
2024/05/05 06:51:37;;;;;;;;;;;21.10;54.00;;;;;;5484322;26;1534;-90
2024/05/05 06:54:03;;;;;;;;;;;21.10;54.20;;;;;;5428530;26;1263;-90
2024/05/05 06:56:28;;;;;;;;;;;21.10;54.10;;;;;;5428018;26;1320;-89
2024/05/05 06:58:53;;;;;;;;;;;21.10;54.20;;;;;;5427406;26;1330;-89
2024/05/05 07:01:19;;;;;;;;;;;21.10;54.40;;;;;;5458843;26;1152;-89
2024/05/05 07:03:44;;;;;;;;;;;21.10;54.70;;;;;;5490835;26;1371;-89
2024/05/05 07:06:10;;;;;;;;;;;21.10;54.60;;;;;;5495909;26;1116;-90
2024/05/05 07:08:35;;;;;;;;;;;21.20;54.80;;;;;;5495614;26;1813;-90
2024/05/05 07:11:00;;;;;;;;;;;21.20;54.70;;;;;;5495511;26;1195;-89
2024/05/05 07:13:26;;;;;;;;;;;21.10;54.70;;;;;;5438916;26;1509;-89
2024/05/05 07:15:51;;;;;;;;;;;21.10;54.50;;;;;;5423033;26;908;-89
2024/05/05 07:18:16;;;;;;;;;;;21.10;54.40;;;;;;5421820;26;1204;-90
2024/05/05 07:20:42;;;;;;;;;;;21.10;54.40;;;;;;5423218;26;1210;-91
2024/05/05 07:23:07;;;;;;;;;;;21.10;55.20;;;;;;5425109;26;1439;-90
2024/05/05 07:25:33;;;;;;;;;;;21.10;55.10;;;;;;5496212;26;1083;-90
2024/05/05 07:27:58;;;;;;;;;;;21.20;54.80;;;;;;5498521;26;1855;-89
2024/05/05 07:30:23;;;;;;;;;;;21.20;55.00;;;;;;5497724;26;1100;-89
2024/05/05 07:32:49;;;;;;;;;;;21.20;54.80;;;;;;5498850;26;948;-90
2024/05/05 07:35:14;;;;;;;;;;;21.10;54.60;;;;;;5473568;26;1508;-89
2024/05/05 07:37:40;;;;;;;;;;;21.20;54.60;;;;;;5460726;26;984;-90
2024/05/05 07:40:06;;;;;;;;;;;21.20;54.50;;;;;;5430503;26;1241;-90
2024/05/05 07:42:31;;;;;;;;;;;21.20;54.40;;;;;;5429677;26;1274;-89
2024/05/05 07:44:56;;;;;;;;;;;21.20;54.40;;;;;;5469135;26;1411;-89
2024/05/05 07:47:22;;;;;;;;;;;21.20;54.90;;;;;;5487467;26;1828;-90
2024/05/05 07:49:47;;;;;;;;;;;21.20;54.20;;;;;;5467645;26;1653;-90
2024/05/05 07:52:12;;;;;;;;;;;21.20;54.10;;;;;;5461411;26;1062;-90
2024/05/05 07:54:38;;;;;;;;;;;21.20;54.10;;;;;;5429531;26;1307;-89
2024/05/05 07:57:03;;;;;;;;;;;21.20;54.10;;;;;;5460983;26;993;-91
2024/05/05 07:59:28;;;;;;;;;;;21.20;54.00;;;;;;5458978;26;1385;-89
2024/05/05 08:01:54;;;;;;;;;;;21.20;54.00;;;;;;5463129;26;1568;-89
2024/05/05 08:04:19;;;;;;;;;;;21.20;53.90;;;;;;5462928;26;981;-91
2024/05/05 08:06:45;;;;;;;;;;;21.20;54.00;;;;;;5432105;26;1177;-91
2024/05/05 08:09:10;;;;;;;;;;;21.20;54.20;;;;;;5471850;26;1813;-91
2024/05/05 08:11:35;;;;;;;;;;;21.20;54.30;;;;;;5462997;26;1287;-91
2024/05/05 08:14:02;;;;;;;;;;;21.20;54.30;;;;;;5464799;26;874;-92
2024/05/05 08:16:27;;;;;;;;;;;21.20;54.30;;;;;;5463623;26;914;-90
2024/05/05 08:18:53;;;;;;;;;;;21.20;54.30;;;;;;5466060;26;1286;-90
2024/05/05 08:21:18;;;;;;;;;;;21.20;54.30;;;;;;5467226;26;1180;-91
2024/05/05 08:23:43;;;;;;;;;;;21.20;54.30;;;;;;5467518;26;1211;-91
2024/05/05 08:26:09;;;;;;;;;;;21.20;54.20;;;;;;5499281;26;1041;-91
2024/05/05 08:28:34;;;;;;;;;;;21.20;54.20;;;;;;5499664;26;1801;-92
2024/05/05 08:31:00;;;;;;;;;;;21.30;54.40;;;;;;5473584;26;1517;-91
2024/05/05 08:33:25;;;;;;;;;;;21.20;54.30;;;;;;5462830;26;1053;-91
2024/05/05 08:35:50;;;;;;;;;;;21.20;54.30;;;;;;5431589;26;1128;-90
2024/05/05 08:38:16;;;;;;;;;;;21.20;54.30;;;;;;5431476;26;1208;-92
2024/05/05 08:40:41;;;;;;;;;;;21.20;54.30;;;;;;5455434;26;1699;-91
2024/05/05 08:43:06;;;;;;;;;;;21.30;54.60;;;;;;5426833;26;895;-91
2024/05/05 08:45:32;;;;;;;;;;;21.30;54.50;;;;;;5495164;26;1474;-92
2024/05/05 08:47:57;;;;;;;;;;;21.20;54.50;;;;;;5466633;26;1826;-92
2024/05/05 08:50:22;;;;;;;;;;;21.20;54.50;;;;;;5498818;26;1083;-93
2024/05/05 08:52:48;;;;;;;;;;;21.30;54.50;;;;;;5461443;26;1537;-90
2024/05/05 08:55:13;;;;;;;;;;;21.20;54.30;;;;;;5466925;26;1354;-92
2024/05/05 08:57:39;;;;;;;;;;;21.20;54.30;;;;;;5498886;26;1061;-91
2024/05/05 09:00:04;;;;;;;;;;;21.30;54.30;;;;;;5498356;26;1049;-91
2024/05/05 09:02:30;;;;;;;;;;;21.30;54.30;;;;;;5441212;26;1501;-91
2024/05/05 09:04:55;;;;;;;;;;;21.20;54.20;;;;;;5425087;26;1330;-92
2024/05/05 09:07:21;;;;;;;;;;;21.20;54.10;;;;;;5425658;26;938;-92
2024/05/05 09:09:46;;;;;;;;;;;21.20;54.30;;;;;;5426287;26;1839;-91
2024/05/05 09:12:12;;;;;;;;;;;21.30;54.50;;;;;;5394921;26;1257;-91
2024/05/05 09:14:38;;;;;;;;;;;21.20;54.60;;;;;;5397564;26;1415;-91
2024/05/05 09:17:03;;;;;;;;;;;21.30;54.60;;;;;;5395019;26;1335;-91
2024/05/05 09:19:29;;;;;;;;;;;21.20;54.50;;;;;;5395178;26;1167;-91
2024/05/05 09:21:54;;;;;;;;;;;21.20;54.40;;;;;;5394951;26;1288;-91
2024/05/05 09:24:19;;;;;;;;;;;21.30;54.40;;;;;;5457524;26;1654;-91
2024/05/05 09:26:45;;;;;;;;;;;21.30;54.50;;;;;;5467296;26;1336;-94
2024/05/05 09:29:10;;;;;;;;;;;21.30;54.50;;;;;;5467356;26;1810;-90
2024/05/05 09:31:35;;;;;;;;;;;21.30;55.00;;;;;;5499375;26;902;-90
2024/05/05 09:34:01;;;;;;;;;;;21.20;56.50;;;;;;5497762;26;1536;-90
2024/05/05 09:36:26;;;;;;;;;;;21.30;57.10;;;;;;5428094;26;1403;-92
2024/05/05 09:38:51;;;;;;;;;;;21.30;57.70;;;;;;5427226;26;848;-92
2024/05/05 09:41:17;;;;;;;;;;;21.30;58.50;;;;;;5426690;26;833;-92
2024/05/05 09:43:42;;;;;;;;;;;21.30;57.50;;;;;;5428175;26;1037;-92
2024/05/05 09:46:08;;;;;;;;;;;21.30;57.30;;;;;;5450302;26;1512;-92
2024/05/05 09:48:33;;;;;;;;;;;21.30;57.20;;;;;;5431476;26;1806;-91
2024/05/05 09:50:58;;;;;;;;;;;21.30;57.20;;;;;;5462430;26;954;-91
2024/05/05 09:53:24;;;;;;;;;;;21.30;57.10;;;;;;5430602;26;1251;-93
2024/05/05 09:55:49;;;;;;;;;;;21.30;56.90;;;;;;5464431;26;1622;-92
2024/05/05 09:58:15;;;;;;;;;;;21.30;56.90;;;;;;5463784;26;978;-91
2024/05/05 10:00:40;;;;;;;;;;;21.30;56.80;;;;;;5432840;26;1339;-92
2024/05/05 10:03:05;;;;;;;;;;;21.30;56.70;;;;;;5462543;26;1122;-92
2024/05/05 10:05:31;;;;;;;;;;;21.40;56.80;;;;;;5431433;26;1195;-91
2024/05/05 10:07:59;;;;;;;;;;;21.40;56.70;;;;;;5464398;26;1814;-92
2024/05/05 10:10:24;;;;;;;;;;;21.30;56.60;;;;;;5465992;26;933;-92
2024/05/05 10:12:50;;;;;;;;;;;21.40;56.60;;;;;;5466380;26;1131;-91
2024/05/05 10:15:15;;;;;;;;;;;21.40;56.60;;;;;;5433668;26;1302;-91
2024/05/05 10:17:40;;;;;;;;;;;21.30;56.60;;;;;;5468485;26;1647;-93
2024/05/05 10:20:06;;;;;;;;;;;21.40;56.80;;;;;;5466438;26;1159;-91
2024/05/05 10:22:31;;;;;;;;;;;21.40;57.00;;;;;;5441774;26;1173;-91
2024/05/05 10:24:57;;;;;;;;;;;21.40;57.30;;;;;;5482096;26;1057;-91
2024/05/05 10:27:22;;;;;;;;;;;21.40;57.10;;;;;;5482131;26;1052;-90
2024/05/05 10:29:47;;;;;;;;;;;21.40;57.50;;;;;;5509884;26;1813;-91
2024/05/05 10:32:13;;;;;;;;;;;21.40;57.10;;;;;;5488044;26;1252;-92
2024/05/05 10:34:38;;;;;;;;;;;21.40;56.90;;;;;;5487889;26;1168;-92
2024/05/05 10:37:03;;;;;;;;;;;21.40;56.80;;;;;;5488018;26;1036;-92
2024/05/05 10:39:29;;;;;;;;;;;21.50;56.80;;;;;;5485249;26;1666;-90
2024/05/05 10:41:54;;;;;;;;;;;21.40;56.50;;;;;;5487681;26;1175;-90
2024/05/05 10:44:20;;;;;;;;;;;21.40;56.50;;;;;;5518461;26;1001;-91
2024/05/05 10:46:45;;;;;;;;;;;21.40;56.50;;;;;;5486709;26;1317;-90
2024/05/05 10:49:10;;;;;;;;;;;21.50;56.40;;;;;;5518198;26;1848;-90
2024/05/05 10:51:36;;;;;;;;;;;21.50;56.50;;;;;;5484560;26;1377;-89
2024/05/05 10:54:01;;;;;;;;;;;21.50;56.40;;;;;;5514410;26;917;-90
2024/05/05 10:56:30;;;;;;;;;;;21.50;56.40;;;;;;5512838;26;1036;-90
2024/05/05 10:58:55;;;;;;;;;;;21.50;56.30;;;;;;5511927;26;1016;-90
2024/05/05 11:01:20;;;;;;;;;;;21.50;56.20;;;;;;5482969;26;1479;-89
2024/05/05 11:03:47;;;;;;;;;;;21.50;56.20;;;;;;5460475;26;867;-90
2024/05/05 11:06:12;;;;;;;;;;;21.50;56.10;;;;;;5428742;26;1197;-90
2024/05/05 11:08:37;;;;;;;;;;;21.50;56.00;;;;;;5464454;26;1851;-91
2024/05/05 11:11:03;;;;;;;;;;;21.50;56.00;;;;;;5433186;26;1398;-90
2024/05/05 11:13:28;;;;;;;;;;;21.50;56.00;;;;;;5460053;26;1093;-90
2024/05/05 11:15:53;;;;;;;;;;;21.60;56.00;;;;;;5459499;26;852;-90
2024/05/05 11:18:19;;;;;;;;;;;21.50;55.90;;;;;;5461187;26;965;-90
2024/05/05 11:20:50;;;;;;;;;;;21.50;55.80;;;;;;5459221;26;1170;-90
2024/05/05 11:23:15;;;;;;;;;;;21.50;55.70;;;;;;5429109;26;1334;-90
2024/05/05 11:25:40;;;;;;;;;;;21.50;55.60;;;;;;5471155;26;1501;-90
2024/05/05 11:28:09;;;;;;;;;;;21.60;55.70;;;;;;5496135;26;1818;-90
2024/05/05 11:30:37;;;;;;;;;;;21.50;55.50;;;;;;5463647;26;1301;-89
2024/05/05 11:33:02;;;;;;;;;;;21.50;55.50;;;;;;5463478;26;1273;-90
2024/05/05 11:35:28;;;;;;;;;;;21.50;55.50;;;;;;5492650;26;1452;-90
2024/05/05 11:37:53;;;;;;;;;;;21.50;55.40;;;;;;5495607;26;947;-90
2024/05/05 11:40:19;;;;;;;;;;;21.50;55.40;;;;;;5495882;26;899;-90
2024/05/05 11:42:44;;;;;;;;;;;21.60;55.50;;;;;;5495551;26;913;-90
2024/05/05 11:45:09;;;;;;;;;;;21.60;55.40;;;;;;5463322;26;1189;-90
2024/05/05 11:47:35;;;;;;;;;;;21.50;55.30;;;;;;5474117;26;1856;-90
2024/05/05 11:50:00;;;;;;;;;;;21.50;55.30;;;;;;5427261;26;1201;-91
2024/05/05 11:52:25;;;;;;;;;;;21.50;55.30;;;;;;5459311;26;946;-90
2024/05/05 11:54:51;;;;;;;;;;;21.50;55.30;;;;;;5427605;26;1208;-90
2024/05/05 11:57:16;;;;;;;;;;;21.50;55.30;;;;;;5463375;26;1350;-90
2024/05/05 11:59:42;;;;;;;;;;;21.50;55.30;;;;;;5495272;26;1033;-90
2024/05/05 12:02:07;;;;;;;;;;;21.50;55.30;;;;;;5463169;26;1333;-90
2024/05/05 12:04:32;;;;;;;;;;;21.50;55.30;;;;;;5495089;26;993;-89
2024/05/05 12:06:58;;;;;;;;;;;21.50;55.40;;;;;;5495383;26;1159;-90
2024/05/05 12:09:23;;;;;;;;;;;21.50;55.30;;;;;;5492250;26;1847;-90
2024/05/05 12:11:48;;;;;;;;;;;21.60;55.40;;;;;;5494940;26;938;-90
2024/05/05 12:14:14;;;;;;;;;;;21.50;55.30;;;;;;5462870;26;1228;-90
2024/05/05 12:16:39;;;;;;;;;;;21.50;55.30;;;;;;5495353;26;933;-90
2024/05/05 12:19:08;;;;;;;;;;;21.50;55.30;;;;;;5451801;26;1585;-90
2024/05/05 12:21:33;;;;;;;;;;;21.50;55.30;;;;;;5458285;26;945;-90
2024/05/05 12:23:58;;;;;;;;;;;21.60;55.40;;;;;;5458499;26;1100;-90
2024/05/05 12:26:24;;;;;;;;;;;21.50;55.30;;;;;;5458648;26;974;-90
2024/05/05 12:28:49;;;;;;;;;;;21.50;55.30;;;;;;5457993;26;1852;-91
2024/05/05 12:31:15;;;;;;;;;;;21.60;55.40;;;;;;5459625;26;1385;-90
2024/05/05 12:33:40;;;;;;;;;;;21.60;55.40;;;;;;5458034;26;981;-90
2024/05/05 12:36:05;;;;;;;;;;;21.60;55.40;;;;;;5457880;26;1072;-90
2024/05/05 12:38:31;;;;;;;;;;;21.60;55.30;;;;;;5426370;26;1184;-90
2024/05/05 12:40:56;;;;;;;;;;;21.60;55.30;;;;;;5460275;26;1338;-90
2024/05/05 12:43:24;;;;;;;;;;;21.60;55.30;;;;;;5458460;26;910;-90
2024/05/05 12:45:50;;;;;;;;;;;21.60;55.30;;;;;;5458932;26;1008;-90
2024/05/05 12:48:18;;;;;;;;;;;21.60;55.30;;;;;;5458606;26;1847;-90
2024/05/05 12:50:44;;;;;;;;;;;21.60;55.30;;;;;;5458603;26;1524;-90
2024/05/05 12:53:09;;;;;;;;;;;21.60;55.20;;;;;;5422299;26;1564;-90
2024/05/05 12:55:34;;;;;;;;;;;21.60;55.20;;;;;;5422282;26;1052;-90
2024/05/05 12:58:00;;;;;;;;;;;21.60;55.20;;;;;;5391022;26;1277;-90
2024/05/05 13:00:25;;;;;;;;;;;21.60;55.20;;;;;;5391343;26;1348;-90
2024/05/05 13:02:50;;;;;;;;;;;21.70;55.20;;;;;;5410300;26;1352;-89
2024/05/05 13:05:17;;;;;;;;;;;21.70;55.20;;;;;;5457598;26;909;-90
2024/05/05 13:07:42;;;;;;;;;;;21.70;55.20;;;;;;5457854;26;1822;-90
2024/05/05 13:10:08;;;;;;;;;;;21.70;55.10;;;;;;5426393;26;1237;-90
2024/05/05 13:12:33;;;;;;;;;;;21.70;55.10;;;;;;5458762;26;1422;-90
2024/05/05 13:14:58;;;;;;;;;;;21.70;55.10;;;;;;5457734;26;1057;-90
2024/05/05 13:17:24;;;;;;;;;;;21.70;55.10;;;;;;5457418;26;963;-90
2024/05/05 13:19:49;;;;;;;;;;;21.70;55.00;;;;;;5457492;26;1146;-89
2024/05/05 13:22:14;;;;;;;;;;;21.70;55.00;;;;;;5457223;26;1050;-90
2024/05/05 13:24:40;;;;;;;;;;;21.70;55.00;;;;;;5432447;26;1434;-90
2024/05/05 13:27:05;;;;;;;;;;;21.70;55.00;;;;;;5421073;26;1045;-89
2024/05/05 13:29:31;;;;;;;;;;;21.70;54.90;;;;;;5421436;26;1830;-90
2024/05/05 13:31:56;;;;;;;;;;;21.70;54.90;;;;;;5421183;26;899;-90
2024/05/05 13:34:21;;;;;;;;;;;21.70;54.90;;;;;;5410179;26;1580;-90
2024/05/05 13:36:47;;;;;;;;;;;21.70;54.90;;;;;;5493175;26;1098;-90
2024/05/05 13:39:12;;;;;;;;;;;21.80;55.00;;;;;;5462004;26;1373;-90
2024/05/05 13:41:37;;;;;;;;;;;21.80;54.90;;;;;;5461884;26;1267;-90
2024/05/05 13:44:03;;;;;;;;;;;21.70;54.80;;;;;;5461605;26;1292;-90
2024/05/05 13:46:28;;;;;;;;;;;21.80;54.90;;;;;;5491586;26;1464;-90
2024/05/05 13:48:54;;;;;;;;;;;21.80;54.90;;;;;;5461526;26;1849;-90
2024/05/05 13:51:19;;;;;;;;;;;21.70;54.80;;;;;;5492986;26;977;-90
2024/05/05 13:53:44;;;;;;;;;;;21.70;54.70;;;;;;5461709;26;1254;-90
2024/05/05 13:56:10;;;;;;;;;;;21.70;54.70;;;;;;5478700;26;1302;-90
2024/05/05 13:58:35;;;;;;;;;;;21.80;54.80;;;;;;5425065;26;1170;-90
2024/05/05 14:01:02;;;;;;;;;;;21.80;54.70;;;;;;5424832;26;1213;-90
2024/05/05 14:03:27;;;;;;;;;;;21.80;54.70;;;;;;5425364;26;1177;-90
2024/05/05 14:05:52;;;;;;;;;;;21.70;54.60;;;;;;5457145;26;1330;-90
2024/05/05 14:08:18;;;;;;;;;;;21.80;54.70;;;;;;5458361;26;1853;-89
2024/05/05 14:10:43;;;;;;;;;;;21.80;54.70;;;;;;5425304;26;1216;-90
2024/05/05 14:13:08;;;;;;;;;;;21.80;54.70;;;;;;5425322;26;1248;-90
2024/05/05 14:15:34;;;;;;;;;;;21.80;54.70;;;;;;5425201;26;1152;-90
2024/05/05 14:17:59;;;;;;;;;;;21.80;54.70;;;;;;5458614;26;1440;-90
2024/05/05 14:20:25;;;;;;;;;;;21.80;54.70;;;;;;5456491;26;1170;-90